createdAt,value
2022-12-24T00:00:40.193Z,3.35
2022-12-24T00:05:42.348Z,2.62
2022-12-24T00:10:45.192Z,3.08
2022-12-24T00:15:47.488Z,2.93
2022-12-24T00:20:50.117Z,2.42
2022-12-24T00:30:54.257Z,2.70
2022-12-24T00:35:56.327Z,2.37
2022-12-24T00:41:03.549Z,1.90
2022-12-24T00:46:05.742Z,2.70
2022-12-24T00:51:07.945Z,2.85
2022-12-24T00:56:10.466Z,2.20
2022-12-24T01:01:13.436Z,2.40
2022-12-24T01:06:18.597Z,2.83
2022-12-24T01:11:20.791Z,2.70
2022-12-24T01:16:22.962Z,2.05
2022-12-24T01:21:25.196Z,3.40
2022-12-24T01:26:27.260Z,2.05
2022-12-24T01:31:29.479Z,2.25
2022-12-24T01:36:31.655Z,1.90
2022-12-24T01:41:52.206Z,2.83
2022-12-24T01:47:17.596Z,2.80
2022-12-24T01:52:30.980Z,2.50
2022-12-24T01:57:41.612Z,2.67
2022-12-24T02:02:47.943Z,2.13
2022-12-24T02:07:50.675Z,4.20
2022-12-24T02:12:53.398Z,2.53
2022-12-24T02:23:16.290Z,3.50
2022-12-24T02:28:55.610Z,2.53
2022-12-24T02:34:15.020Z,2.53
2022-12-24T02:39:27.187Z,3.63
2022-12-24T02:44:31.836Z,2.63
2022-12-24T02:49:35.668Z,2.33
2022-12-24T02:54:37.887Z,1.87
2022-12-24T03:00:15.696Z,2.03
2022-12-24T03:05:28.746Z,2.07
2022-12-24T03:10:55.526Z,2.10
2022-12-24T03:15:57.700Z,2.20
2022-12-24T03:21:07.673Z,2.78
2022-12-24T03:26:14.445Z,3.27
2022-12-24T03:31:18.775Z,2.85
2022-12-24T03:36:21.410Z,2.45
2022-12-24T03:41:23.559Z,3.08
2022-12-24T03:46:25.675Z,3.00
2022-12-24T03:51:28.657Z,2.72
2022-12-24T03:56:30.735Z,3.73
2022-12-24T04:01:34.679Z,3.22
2022-12-24T04:06:36.896Z,2.57
2022-12-24T04:11:39.933Z,3.07
2022-12-24T04:16:42.044Z,2.22
2022-12-24T04:21:44.226Z,3.25
2022-12-24T04:26:46.316Z,3.58
2022-12-24T04:31:48.446Z,3.42
2022-12-24T04:36:50.517Z,3.47
2022-12-24T04:41:52.610Z,4.68
2022-12-24T04:46:54.647Z,4.20
2022-12-24T04:51:56.783Z,3.78
2022-12-24T04:56:58.948Z,3.25
2022-12-24T05:02:01.189Z,3.65
2022-12-24T05:07:04.548Z,3.55
2022-12-24T05:12:06.873Z,5.07
2022-12-24T05:17:08.994Z,4.60
2022-12-24T05:22:29.813Z,3.75
2022-12-24T05:27:32.119Z,4.63
2022-12-24T05:32:34.320Z,4.18
2022-12-24T05:37:36.429Z,4.07
2022-12-24T05:42:38.585Z,3.62
2022-12-24T05:47:43.432Z,5.93
2022-12-24T05:52:45.945Z,3.33
2022-12-24T05:57:48.032Z,2.92
2022-12-24T06:02:50.279Z,5.97
2022-12-24T06:07:52.457Z,4.00
2022-12-24T06:12:55.728Z,3.83
2022-12-24T06:17:57.842Z,4.25
2022-12-24T06:22:59.924Z,4.15
2022-12-24T06:28:02.036Z,4.62
2022-12-24T06:33:04.136Z,4.85
2022-12-24T06:38:06.352Z,4.45
2022-12-24T06:43:09.080Z,4.60
2022-12-24T06:53:13.643Z,5.50
2022-12-24T06:58:15.717Z,5.20
2022-12-24T07:03:17.987Z,5.93
2022-12-24T07:08:20.176Z,4.90
2022-12-24T07:13:22.189Z,4.95
2022-12-24T07:18:24.211Z,5.47
2022-12-24T07:23:26.845Z,3.85
2022-12-24T07:33:31.717Z,3.83
2022-12-24T07:38:35.214Z,4.62
2022-12-24T07:43:37.364Z,5.60
2022-12-24T07:48:39.471Z,4.37
2022-12-24T07:53:47.615Z,3.65
2022-12-24T07:58:52.994Z,3.73
2022-12-24T08:03:55.291Z,3.53
2022-12-24T08:08:57.641Z,2.95
2022-12-24T08:13:59.765Z,4.25
2022-12-24T08:19:01.890Z,4.70
2022-12-24T08:24:04.361Z,4.65
2022-12-24T08:29:06.835Z,4.18
2022-12-24T08:34:09.028Z,3.25
2022-12-24T08:39:11.178Z,3.22
2022-12-24T08:44:13.308Z,3.17
2022-12-24T08:49:15.951Z,6.03
2022-12-24T08:54:18.730Z,4.82
2022-12-24T09:04:22.871Z,4.93
2022-12-24T09:09:25.019Z,4.57
2022-12-24T09:14:27.110Z,6.40
2022-12-24T09:19:29.286Z,4.40
2022-12-24T09:24:32.182Z,5.47
2022-12-24T09:29:35.408Z,5.00
2022-12-24T09:34:37.873Z,4.17
2022-12-24T09:39:40.128Z,5.62
2022-12-24T09:45:04.081Z,4.03
2022-12-24T09:50:23.851Z,4.10
2022-12-24T09:55:32.052Z,6.62
2022-12-24T10:00:37.587Z,4.25
2022-12-24T10:06:04.385Z,3.95
2022-12-24T10:11:12.893Z,4.97
2022-12-24T10:16:33.131Z,6.40
2022-12-24T10:22:05.455Z,4.10
2022-12-24T10:27:14.956Z,4.40
2022-12-24T10:32:29.975Z,5.43
2022-12-24T10:37:32.772Z,5.68
2022-12-24T10:42:50.601Z,5.55
2022-12-24T10:47:59.110Z,4.70
2022-12-24T10:53:21.426Z,4.32
2022-12-24T10:58:23.610Z,4.47
2022-12-24T11:03:34.624Z,5.43
2022-12-24T11:08:40.098Z,4.85
2022-12-24T11:13:52.736Z,3.22
2022-12-24T11:18:57.838Z,4.20
2022-12-24T11:24:13.484Z,5.12
2022-12-24T11:29:21.497Z,5.65
2022-12-24T11:34:32.712Z,7.00
2022-12-24T11:39:41.399Z,5.37
2022-12-24T11:44:50.602Z,4.68
2022-12-24T11:49:52.697Z,5.15
2022-12-24T11:54:54.981Z,4.95
2022-12-24T11:59:57.373Z,4.68
2022-12-24T12:05:19.486Z,3.55
2022-12-24T12:10:25.776Z,4.37
2022-12-24T12:15:35.126Z,5.10
2022-12-24T12:20:45.112Z,5.00
2022-12-24T12:26:12.896Z,4.90
2022-12-24T12:31:27.802Z,4.18
2022-12-24T12:36:40.229Z,5.85
2022-12-24T12:41:51.363Z,4.67
2022-12-24T12:47:11.323Z,5.57
2022-12-24T12:52:27.130Z,4.25
2022-12-24T12:57:36.772Z,4.57
2022-12-24T13:03:07.178Z,5.05
2022-12-24T13:08:37.025Z,4.05
2022-12-24T13:13:39.149Z,4.07
2022-12-24T13:18:44.525Z,4.12
2022-12-24T13:23:47.328Z,5.25
2022-12-24T13:28:49.426Z,4.32
2022-12-24T13:33:54.135Z,3.65
2022-12-24T13:38:57.682Z,4.25
2022-12-24T13:44:14.746Z,4.78
2022-12-24T13:49:21.099Z,3.87
2022-12-24T13:54:28.346Z,3.40
2022-12-24T13:59:38.666Z,4.05
2022-12-24T14:04:42.288Z,3.53
2022-12-24T14:09:50.468Z,3.80
2022-12-24T14:14:52.631Z,3.65
2022-12-24T14:19:58.211Z,4.20
2022-12-24T14:25:18.395Z,3.80
2022-12-24T14:30:25.541Z,4.68
2022-12-24T14:35:37.659Z,3.83
2022-12-24T14:40:51.954Z,3.62
2022-12-24T14:46:26.268Z,4.15
2022-12-24T14:51:45.979Z,3.25
2022-12-24T14:57:06.305Z,5.80
2022-12-24T15:02:40.459Z,6.53
2022-12-24T15:07:48.839Z,5.57
2022-12-24T15:12:51.772Z,4.72
2022-12-24T15:17:55.925Z,5.03
2022-12-24T15:22:59.012Z,4.80
2022-12-24T15:28:01.317Z,4.05
2022-12-24T15:33:05.166Z,4.68
2022-12-24T15:38:18.838Z,4.13
2022-12-24T15:43:21.406Z,4.72
2022-12-24T15:48:26.782Z,4.57
2022-12-24T15:53:41.386Z,4.00
2022-12-24T15:58:45.372Z,3.10
2022-12-24T16:03:50.539Z,3.97
2022-12-24T16:08:53.215Z,4.70
2022-12-24T16:14:10.569Z,4.40
2022-12-24T16:19:22.689Z,9.32
2022-12-24T16:24:28.141Z,9.82
2022-12-24T16:29:30.387Z,11.20
2022-12-24T16:34:33.193Z,8.80
2022-12-24T16:44:37.790Z,7.13
2022-12-24T16:49:40.183Z,7.65
2022-12-24T16:54:42.294Z,9.23
2022-12-24T16:59:44.510Z,14.18
2022-12-24T17:04:47.509Z,11.85
2022-12-24T17:09:49.685Z,11.60
2022-12-24T17:14:51.832Z,9.50
2022-12-24T17:19:54.933Z,7.95
2022-12-24T17:24:57.127Z,7.87
2022-12-24T17:29:59.802Z,8.10
2022-12-24T17:40:05.322Z,6.60
2022-12-24T17:45:07.853Z,6.10
2022-12-24T17:50:10.356Z,6.93
2022-12-24T17:55:12.579Z,6.60
2022-12-24T18:00:15.552Z,5.78
2022-12-24T18:05:18.566Z,5.55
2022-12-24T18:10:21.142Z,6.05
2022-12-24T18:15:23.503Z,12.13
2022-12-24T18:20:26.019Z,12.65
2022-12-24T18:25:28.216Z,17.23
2022-12-24T18:30:30.331Z,13.73
2022-12-24T18:35:32.482Z,11.88
2022-12-24T18:40:37.173Z,10.18
2022-12-24T18:45:44.467Z,8.27
2022-12-24T18:50:56.093Z,6.20
2022-12-24T18:56:06.742Z,7.15
2022-12-24T19:01:27.063Z,6.83
2022-12-24T19:06:29.706Z,8.80
2022-12-24T19:11:33.797Z,8.60
2022-12-24T19:16:37.248Z,8.95
2022-12-24T19:21:39.449Z,8.57
2022-12-24T19:26:41.583Z,8.23
2022-12-24T19:31:47.118Z,7.85
2022-12-24T19:36:49.400Z,7.90
2022-12-24T19:41:52.516Z,6.43
2022-12-24T19:46:54.740Z,6.55
2022-12-24T19:51:56.884Z,5.47
2022-12-24T19:56:58.984Z,5.28
2022-12-24T20:02:01.304Z,8.55
2022-12-24T20:07:03.687Z,22.15
2022-12-24T20:12:06.161Z,10.85
2022-12-24T20:17:08.825Z,5.78
2022-12-24T20:27:13.122Z,4.03
2022-12-24T20:32:15.331Z,5.45
2022-12-24T20:37:17.530Z,5.57
2022-12-24T20:42:19.721Z,8.15
2022-12-24T20:47:21.828Z,10.77
2022-12-24T20:52:24.374Z,11.30
2022-12-24T20:57:31.429Z,8.57
2022-12-24T21:02:38.583Z,6.60
2022-12-24T21:07:42.912Z,7.50
2022-12-24T21:12:56.832Z,6.93
2022-12-24T21:18:00.042Z,7.27
2022-12-24T21:23:02.352Z,7.07
2022-12-24T21:28:04.750Z,7.22
2022-12-24T21:33:06.853Z,6.60
2022-12-24T21:38:08.984Z,5.72
2022-12-24T21:43:11.096Z,8.25
2022-12-24T21:48:31.749Z,10.50
2022-12-24T21:53:52.744Z,11.10
2022-12-24T21:58:54.886Z,12.93
2022-12-24T22:03:56.963Z,11.10
2022-12-24T22:09:20.037Z,9.30
2022-12-24T22:14:22.253Z,12.45
2022-12-24T22:19:24.783Z,10.07
2022-12-24T22:24:27.334Z,8.35
2022-12-24T22:29:29.554Z,10.50
2022-12-24T22:34:32.829Z,9.25
2022-12-24T22:39:35.007Z,7.10
2022-12-24T22:44:37.182Z,6.45
2022-12-24T22:49:39.307Z,7.50
2022-12-24T22:54:41.412Z,5.65
2022-12-24T22:59:43.980Z,6.72
2022-12-24T23:04:46.493Z,5.60
2022-12-24T23:09:48.702Z,6.22
2022-12-24T23:14:56.853Z,5.43
2022-12-24T23:20:00.582Z,5.85
2022-12-24T23:25:02.678Z,4.70
2022-12-24T23:30:05.462Z,5.90
2022-12-24T23:35:07.968Z,5.80
2022-12-24T23:40:11.014Z,5.32
2022-12-24T23:45:13.266Z,4.20
2022-12-24T23:50:15.418Z,5.10
2022-12-24T23:55:17.834Z,5.43
